Decoded Metar for KSRE (SEMINOLE in OK, USA) (IATA:SRE) | Meteo·Mobile Aviation Weather
aviador You're here:

KSRE Decoded Metar

SEMINOLE in OK, USA
Report Time2019-03-23 16:15:00
UTC Time2019-03-23 16:36:46
Flight Rules vfr VFR
Wind120° at 05 kt
W.Decomp.*RWY 16: 3.5 kt HW 3.6 kt LCW
RWY 05: 2.2 kt HW 4.5 kt RCW
W.Rank120° ranks 15
Current wind is below 120° avg. (6.2)
Visibility9999 m
Phenomena:N/A
Clouds:Overcast 036 Hf
Expected CloudBase > 1,200 ft AGL from Temp-Dew spread
Ceiling3,600 ft
Temp13°C (ISA 0)
Dew Point10°C (82% RH)
AAT11.2°C
QNH1018 hPa
Density Alt1,027 ft
Elevation1,024 ft
Report Wrong Elevation
Raw Report
KSRE 231615Z AUTO 12005KT 10SM OVC036 13/10 A3005 RMK AO2 LTG DSNT
ALQDS=

Extra information for KSRE:More info

Airport Information Weather charts Add Link Nearby Venues Social comments

AIRNAV info for KSRE